createdAt,value
2017-04-21T00:00:45.347Z,23.1
2017-04-21T00:01:53.519Z,23.1
2017-04-21T00:03:01.526Z,23.0
2017-04-21T00:04:09.612Z,23.1
2017-04-21T00:05:17.699Z,23.1
2017-04-21T00:06:25.788Z,23.0
2017-04-21T00:07:33.875Z,23.1
2017-04-21T00:08:41.955Z,23.1
2017-04-21T00:09:50.045Z,23.1
2017-04-21T00:10:58.141Z,23.0
2017-04-21T00:12:06.217Z,23.1
2017-04-21T00:13:14.304Z,23.1
2017-04-21T00:14:22.393Z,23.1
2017-04-21T00:15:30.480Z,23.1
2017-04-21T00:16:38.561Z,23.1
2017-04-21T00:17:47.081Z,23.0
2017-04-21T00:18:54.740Z,23.1
2017-04-21T00:20:02.824Z,23.0
2017-04-21T00:21:10.914Z,23.0
2017-04-21T00:22:19.003Z,23.0
2017-04-21T00:23:27.088Z,23.0
2017-04-21T00:24:35.172Z,22.9
2017-04-21T00:25:43.266Z,22.9
2017-04-21T00:26:51.349Z,22.9
2017-04-21T00:27:59.435Z,23.0
2017-04-21T00:29:07.529Z,23.0
2017-04-21T00:30:15.612Z,23.0
2017-04-21T00:31:23.697Z,22.9
2017-04-21T00:32:31.788Z,23.0
2017-04-21T00:33:39.871Z,23.0
2017-04-21T00:34:47.961Z,23.0
2017-04-21T00:35:56.044Z,22.9
2017-04-21T00:37:04.134Z,23.0
2017-04-21T00:38:12.233Z,22.9
2017-04-21T00:39:20.317Z,22.9
2017-04-21T00:40:28.408Z,22.9
2017-04-21T00:41:36.499Z,22.9
2017-04-21T00:42:44.582Z,22.8
2017-04-21T00:43:52.662Z,22.9
2017-04-21T00:45:00.915Z,22.8
2017-04-21T00:46:08.840Z,22.9
2017-04-21T00:47:16.922Z,22.9
2017-04-21T00:48:25.012Z,22.9
2017-04-21T00:49:33.100Z,22.9
2017-04-21T00:50:41.184Z,22.8
2017-04-21T00:51:49.273Z,22.8
2017-04-21T00:52:57.361Z,22.8
2017-04-21T00:54:05.448Z,22.8
2017-04-21T00:55:13.537Z,22.8
2017-04-21T00:56:21.620Z,22.8
2017-04-21T00:57:29.710Z,22.8
2017-04-21T00:58:37.794Z,22.8
2017-04-21T00:59:45.886Z,22.8
2017-04-21T01:00:53.968Z,22.7
2017-04-21T01:02:02.061Z,22.7
2017-04-21T01:03:10.137Z,22.8
2017-04-21T01:04:18.228Z,22.8
2017-04-21T01:05:26.313Z,22.8
2017-04-21T01:06:34.402Z,22.7
2017-04-21T01:07:42.483Z,22.8
2017-04-21T01:08:50.572Z,22.6
2017-04-21T01:09:58.658Z,22.6
2017-04-21T01:11:06.756Z,22.7
2017-04-21T01:12:14.836Z,22.7
2017-04-21T01:13:22.920Z,22.6
2017-04-21T01:14:31.002Z,22.6
2017-04-21T01:15:39.091Z,22.7
2017-04-21T01:16:47.181Z,22.6
2017-04-21T01:17:55.284Z,22.7
2017-04-21T01:19:03.349Z,22.6
2017-04-21T01:20:11.444Z,22.6
2017-04-21T01:21:19.530Z,22.6
2017-04-21T01:22:27.617Z,22.6
2017-04-21T01:23:35.700Z,22.6
2017-04-21T01:24:43.798Z,22.5
2017-04-21T01:25:51.882Z,22.6
2017-04-21T01:26:59.960Z,22.5
2017-04-21T01:28:08.051Z,22.6
2017-04-21T01:29:16.138Z,22.6
2017-04-21T01:30:24.224Z,22.6
2017-04-21T01:31:32.310Z,22.5
2017-04-21T01:32:40.397Z,22.5
2017-04-21T01:33:48.480Z,22.5
2017-04-21T01:34:56.563Z,22.5
2017-04-21T01:36:04.654Z,22.5
2017-04-21T01:37:12.741Z,22.6
2017-04-21T01:38:20.827Z,22.4
2017-04-21T01:39:28.913Z,22.5
2017-04-21T01:40:37.004Z,22.5
2017-04-21T01:41:45.088Z,22.5
2017-04-21T01:42:53.178Z,22.5
2017-04-21T01:44:01.263Z,22.6
2017-04-21T01:45:09.348Z,22.5
2017-04-21T01:46:17.437Z,22.5
2017-04-21T01:47:25.517Z,22.4
2017-04-21T01:48:33.608Z,22.5
2017-04-21T01:49:41.688Z,22.4
2017-04-21T01:50:49.777Z,22.4
2017-04-21T01:51:57.868Z,22.3
2017-04-21T01:53:05.954Z,22.4
2017-04-21T01:54:14.037Z,22.4
2017-04-21T01:55:22.128Z,22.3
2017-04-21T01:56:30.214Z,22.3
2017-04-21T01:57:38.300Z,22.4
2017-04-21T01:58:46.384Z,22.4
2017-04-21T01:59:54.477Z,22.4
2017-04-21T02:01:02.555Z,22.4
2017-04-21T02:02:10.642Z,22.4
2017-04-21T02:03:18.735Z,22.4
2017-04-21T02:04:26.825Z,22.3
2017-04-21T02:05:34.912Z,22.4
2017-04-21T02:06:42.992Z,22.4
2017-04-21T02:07:51.084Z,22.4
2017-04-21T02:08:59.169Z,22.4
2017-04-21T02:10:07.254Z,22.3
2017-04-21T02:11:15.340Z,22.4
2017-04-21T02:12:23.428Z,22.4
2017-04-21T02:13:31.555Z,22.3
2017-04-21T02:14:39.602Z,22.4
2017-04-21T02:15:47.693Z,22.3
2017-04-21T02:16:55.778Z,22.3
2017-04-21T02:18:03.870Z,22.3
2017-04-21T02:19:11.952Z,22.2
2017-04-21T02:20:20.037Z,22.3
2017-04-21T02:21:28.120Z,22.3
2017-04-21T02:22:36.212Z,22.4
2017-04-21T02:23:44.296Z,22.3
2017-04-21T02:24:52.387Z,22.3
2017-04-21T02:26:00.471Z,22.3
2017-04-21T02:27:08.560Z,22.2
2017-04-21T02:28:16.646Z,22.3
2017-04-21T02:29:24.729Z,22.3
2017-04-21T02:30:32.900Z,22.2
2017-04-21T02:31:40.905Z,22.3
2017-04-21T02:32:48.991Z,22.3
2017-04-21T02:33:57.075Z,22.3
2017-04-21T02:35:05.164Z,22.3
2017-04-21T02:36:13.269Z,22.3
2017-04-21T02:37:21.334Z,22.3
2017-04-21T02:38:29.419Z,22.3
2017-04-21T02:39:37.512Z,22.3
2017-04-21T02:40:45.602Z,22.3
2017-04-21T02:41:53.678Z,22.3
2017-04-21T02:43:01.769Z,22.3
2017-04-21T02:44:09.853Z,22.3
2017-04-21T02:45:17.941Z,22.3
2017-04-21T02:46:26.025Z,22.2
2017-04-21T02:47:34.141Z,22.3
2017-04-21T02:48:42.201Z,22.3
2017-04-21T02:49:50.288Z,22.2
2017-04-21T02:50:58.383Z,22.2
2017-04-21T02:52:06.469Z,22.2
2017-04-21T02:53:14.551Z,22.2
2017-04-21T02:54:22.642Z,22.2
2017-04-21T02:55:30.726Z,22.2
2017-04-21T02:56:38.813Z,22.2
2017-04-21T02:57:46.896Z,22.1
2017-04-21T02:58:54.991Z,22.2
2017-04-21T03:00:03.072Z,22.2
2017-04-21T03:01:11.156Z,22.1
2017-04-21T03:02:19.246Z,22.2
2017-04-21T03:03:27.332Z,22.1
2017-04-21T03:04:35.422Z,22.2
2017-04-21T03:05:43.505Z,22.0
2017-04-21T03:06:51.591Z,22.1
2017-04-21T03:07:59.686Z,22.1
2017-04-21T03:09:07.773Z,22.1
2017-04-21T03:10:15.857Z,22.1
2017-04-21T03:11:23.947Z,22.2
2017-04-21T03:12:32.036Z,22.1
2017-04-21T03:13:40.123Z,22.0
2017-04-21T03:14:48.214Z,22.1
2017-04-21T03:15:56.299Z,22.1
2017-04-21T03:17:04.383Z,22.1
2017-04-21T03:18:12.472Z,22.1
2017-04-21T03:19:20.561Z,22.0
2017-04-21T03:20:28.646Z,22.1
2017-04-21T03:21:36.736Z,22.0
2017-04-21T03:22:44.823Z,22.1
2017-04-21T03:23:52.907Z,21.9
2017-04-21T03:25:01.041Z,21.9
2017-04-21T03:26:09.084Z,22.0
2017-04-21T03:27:17.173Z,22.0
2017-04-21T03:28:25.256Z,22.0
2017-04-21T03:29:33.345Z,21.9
2017-04-21T03:30:41.446Z,21.9
2017-04-21T03:31:49.519Z,22.0
2017-04-21T03:32:57.607Z,21.9
2017-04-21T03:34:05.690Z,22.0
2017-04-21T03:35:13.777Z,21.9
2017-04-21T03:36:21.857Z,21.9
2017-04-21T03:37:29.945Z,21.9
2017-04-21T03:38:38.035Z,21.8
2017-04-21T03:39:46.124Z,21.9
2017-04-21T03:40:54.204Z,21.9
2017-04-21T03:42:02.298Z,21.8
2017-04-21T03:43:10.386Z,21.8
2017-04-21T03:44:18.470Z,21.8
2017-04-21T03:45:26.554Z,21.8
2017-04-21T03:46:34.641Z,21.8
2017-04-21T03:47:42.724Z,21.8
2017-04-21T03:48:50.811Z,21.8
2017-04-21T03:49:58.900Z,21.8
2017-04-21T03:51:06.995Z,21.8
2017-04-21T03:52:15.075Z,21.7
2017-04-21T03:53:23.164Z,21.7
2017-04-21T03:54:31.256Z,21.7
2017-04-21T03:55:39.340Z,21.7
2017-04-21T03:56:47.427Z,21.7
2017-04-21T03:57:55.519Z,21.6
2017-04-21T03:59:03.606Z,21.8
2017-04-21T04:00:11.688Z,21.7
2017-04-21T04:01:19.778Z,21.6
2017-04-21T04:02:27.864Z,21.7
2017-04-21T04:03:35.971Z,21.7
2017-04-21T04:04:44.059Z,21.7
2017-04-21T04:05:52.124Z,21.6
2017-04-21T04:07:00.212Z,21.7
2017-04-21T04:08:08.293Z,21.6
2017-04-21T04:09:16.389Z,21.6
2017-04-21T04:10:24.464Z,21.6
2017-04-21T04:11:32.561Z,21.8
2017-04-21T04:12:40.649Z,21.6
2017-04-21T04:13:48.738Z,21.6
2017-04-21T04:14:56.822Z,21.6
2017-04-21T04:16:04.902Z,21.6
2017-04-21T04:17:12.991Z,21.7
2017-04-21T04:18:21.079Z,21.6
2017-04-21T04:19:29.163Z,21.6
2017-04-21T04:20:37.250Z,21.6
2017-04-21T04:21:45.335Z,21.6
2017-04-21T04:22:53.423Z,21.6
2017-04-21T04:24:01.505Z,21.5
2017-04-21T04:25:09.720Z,21.5
2017-04-21T04:26:17.684Z,21.6
2017-04-21T04:27:25.772Z,21.5
2017-04-21T04:28:33.858Z,21.5
2017-04-21T04:29:41.953Z,21.5
2017-04-21T04:30:50.044Z,21.4
2017-04-21T04:31:58.130Z,21.5
2017-04-21T04:33:06.214Z,21.4
2017-04-21T04:34:14.306Z,21.4
2017-04-21T04:35:22.387Z,21.4
2017-04-21T04:36:30.470Z,21.4
2017-04-21T04:37:38.559Z,21.4
2017-04-21T04:38:46.641Z,21.4
2017-04-21T04:39:54.726Z,21.3
2017-04-21T04:41:02.818Z,21.3
2017-04-21T04:42:10.904Z,21.3
2017-04-21T04:43:18.989Z,21.4
2017-04-21T04:44:27.073Z,21.4
2017-04-21T04:45:35.162Z,21.3
2017-04-21T04:46:43.247Z,21.3
2017-04-21T04:47:51.328Z,21.2
2017-04-21T04:48:59.425Z,21.3
2017-04-21T04:50:07.505Z,21.3
2017-04-21T04:51:15.587Z,21.2
2017-04-21T04:52:23.672Z,21.3
2017-04-21T04:53:31.759Z,21.2
2017-04-21T04:54:39.848Z,21.1
2017-04-21T04:55:47.936Z,21.1
2017-04-21T04:56:56.018Z,21.2
2017-04-21T04:58:04.114Z,21.1
2017-04-21T04:59:12.221Z,21.1
2017-04-21T05:00:20.276Z,21.1
2017-04-21T05:01:28.364Z,21.1
2017-04-21T05:02:36.451Z,21.0
2017-04-21T05:03:44.533Z,21.1
2017-04-21T05:04:52.622Z,21.1
2017-04-21T05:06:00.827Z,21.1
2017-04-21T05:07:08.799Z,21.1
2017-04-21T05:08:16.878Z,21.1
2017-04-21T05:09:24.964Z,21.0
2017-04-21T05:10:33.048Z,21.1
2017-04-21T05:11:41.132Z,21.0
2017-04-21T05:12:49.218Z,21.1
2017-04-21T05:13:57.311Z,20.9
2017-04-21T05:15:05.383Z,21.0
2017-04-21T05:16:13.528Z,21.0
2017-04-21T05:17:21.559Z,20.9
2017-04-21T05:18:29.642Z,20.9
2017-04-21T05:19:37.724Z,20.9
2017-04-21T05:20:45.811Z,20.9
2017-04-21T05:21:53.899Z,20.9
2017-04-21T05:23:01.986Z,20.9
2017-04-21T05:24:10.069Z,20.9
2017-04-21T05:25:18.153Z,20.9
2017-04-21T05:26:26.236Z,20.9
2017-04-21T05:27:34.325Z,20.9
2017-04-21T05:28:42.433Z,20.9
2017-04-21T05:29:50.503Z,20.8
2017-04-21T05:30:58.583Z,20.9
2017-04-21T05:32:06.671Z,20.8
2017-04-21T05:33:14.815Z,20.8
2017-04-21T05:34:22.841Z,20.9
2017-04-21T05:35:30.922Z,20.8
2017-04-21T05:36:39.012Z,20.8
2017-04-21T05:37:47.093Z,20.8
2017-04-21T05:38:55.176Z,20.9
2017-04-21T05:40:03.269Z,20.8
2017-04-21T05:41:11.353Z,20.8
2017-04-21T05:42:19.438Z,20.8
2017-04-21T05:43:27.520Z,20.8
2017-04-21T05:44:35.614Z,20.8
2017-04-21T05:45:43.701Z,20.8
2017-04-21T05:46:51.781Z,20.9
2017-04-21T05:47:59.870Z,20.8
2017-04-21T05:49:07.955Z,20.9
2017-04-21T05:50:16.037Z,20.8
2017-04-21T05:51:24.122Z,20.8
2017-04-21T05:52:32.211Z,20.8
2017-04-21T05:53:40.302Z,20.9
2017-04-21T05:54:48.380Z,20.9
2017-04-21T05:55:56.959Z,20.9
2017-04-21T05:57:04.558Z,20.9
2017-04-21T05:58:12.645Z,20.9
2017-04-21T05:59:20.725Z,20.9
2017-04-21T06:00:28.813Z,20.9
2017-04-21T06:01:36.896Z,20.9
2017-04-21T06:02:44.982Z,21.0
2017-04-21T06:03:53.071Z,20.9
2017-04-21T06:05:01.156Z,20.9
2017-04-21T06:06:09.242Z,20.9
2017-04-21T06:07:17.332Z,20.9
2017-04-21T06:08:25.414Z,21.0
2017-04-21T06:09:33.521Z,21.0
2017-04-21T06:10:41.598Z,21.0
2017-04-21T06:11:49.672Z,21.0
2017-04-21T06:12:57.758Z,21.1
2017-04-21T06:14:05.836Z,21.1
2017-04-21T06:15:13.929Z,21.0
2017-04-21T06:16:22.016Z,21.1
2017-04-21T06:17:30.725Z,21.1
2017-04-21T06:18:38.208Z,21.0
2017-04-21T06:19:46.275Z,21.1
2017-04-21T06:20:54.361Z,21.1
2017-04-21T06:22:02.447Z,21.0
2017-04-21T06:23:10.531Z,21.1
2017-04-21T06:24:18.620Z,21.2
2017-04-21T06:25:26.704Z,21.2
2017-04-21T06:26:34.814Z,21.2
2017-04-21T06:27:42.903Z,21.2
2017-04-21T06:28:50.967Z,21.1
2017-04-21T06:29:59.045Z,21.1
2017-04-21T06:31:07.135Z,21.1
2017-04-21T06:32:15.223Z,21.2
2017-04-21T06:33:23.307Z,21.2
2017-04-21T06:34:31.392Z,21.4
2017-04-21T06:35:39.482Z,21.3
2017-04-21T06:36:47.571Z,21.3
2017-04-21T06:37:55.655Z,21.2
2017-04-21T06:39:03.744Z,21.3
2017-04-21T06:40:11.827Z,21.3
2017-04-21T06:41:19.915Z,21.3
2017-04-21T06:42:27.994Z,21.3
2017-04-21T06:43:36.089Z,21.3
2017-04-21T06:44:44.191Z,21.4
2017-04-21T06:45:52.928Z,21.3
2017-04-21T06:47:00.341Z,21.3
2017-04-21T06:48:08.425Z,21.4
2017-04-21T06:49:16.511Z,21.3
2017-04-21T06:50:24.624Z,21.3
2017-04-21T06:51:32.687Z,21.4
2017-04-21T06:52:40.771Z,21.4
2017-04-21T06:53:48.855Z,21.3
2017-04-21T06:54:56.941Z,21.4
2017-04-21T06:56:05.033Z,21.3
2017-04-21T06:57:13.113Z,21.4
2017-04-21T06:58:21.201Z,21.4
2017-04-21T06:59:29.293Z,21.4
2017-04-21T07:00:37.376Z,21.4
2017-04-21T07:01:45.460Z,21.4
2017-04-21T07:02:53.548Z,21.4
2017-04-21T07:04:01.634Z,21.5
2017-04-21T07:05:09.713Z,21.5
2017-04-21T07:06:17.800Z,21.5
2017-04-21T07:07:25.889Z,21.5
2017-04-21T07:08:33.977Z,21.5
2017-04-21T07:09:42.200Z,21.5
2017-04-21T07:10:50.148Z,21.5
2017-04-21T07:11:58.235Z,21.5
2017-04-21T07:13:06.314Z,21.5
2017-04-21T07:14:14.409Z,21.5
2017-04-21T07:15:22.499Z,21.5
2017-04-21T07:16:30.574Z,21.5
2017-04-21T07:17:38.905Z,21.5
2017-04-21T07:18:46.760Z,21.5
2017-04-21T07:19:54.832Z,21.6
2017-04-21T07:21:02.919Z,21.5
2017-04-21T07:22:11.007Z,21.5
2017-04-21T07:23:19.096Z,21.6
2017-04-21T07:24:27.203Z,21.5
2017-04-21T07:25:35.264Z,21.6
2017-04-21T07:26:43.354Z,21.5
2017-04-21T07:27:51.460Z,21.5
2017-04-21T07:28:59.523Z,21.6
2017-04-21T07:30:07.610Z,21.6
2017-04-21T07:31:15.698Z,21.6
2017-04-21T07:32:23.788Z,21.5
2017-04-21T07:33:31.867Z,21.5
2017-04-21T07:34:39.954Z,21.5
2017-04-21T07:36:56.202Z,21.5
2017-04-21T07:38:04.216Z,21.5
2017-04-21T07:39:12.298Z,21.5
2017-04-21T07:40:20.378Z,21.5
2017-04-21T07:41:28.465Z,21.5
2017-04-21T07:42:36.555Z,21.5
2017-04-21T07:43:44.641Z,21.6
2017-04-21T07:44:52.727Z,21.6
2017-04-21T07:46:00.812Z,21.5
2017-04-21T07:47:08.896Z,21.5
2017-04-21T07:48:16.983Z,21.5
2017-04-21T07:49:25.069Z,21.5
2017-04-21T07:50:33.158Z,21.6
2017-04-21T07:51:41.255Z,21.6
2017-04-21T07:52:49.326Z,21.5
2017-04-21T07:53:57.414Z,21.5
2017-04-21T07:55:05.499Z,21.6
2017-04-21T07:56:13.586Z,21.6
2017-04-21T07:57:21.667Z,21.5
2017-04-21T07:58:29.755Z,21.6
2017-04-21T07:59:37.855Z,21.5
2017-04-21T08:01:44.212Z,21.6
2017-04-21T08:01:54.091Z,21.5
2017-04-21T08:03:02.102Z,21.5
2017-04-21T08:04:10.559Z,21.5
2017-04-21T08:05:18.273Z,21.5
2017-04-21T08:06:26.359Z,21.6
2017-04-21T08:07:34.531Z,21.5
2017-04-21T08:08:42.535Z,21.6
2017-04-21T08:09:50.619Z,21.5
2017-04-21T08:10:58.707Z,21.5
2017-04-21T08:12:06.802Z,21.6
2017-04-21T08:13:14.878Z,21.6
2017-04-21T08:14:22.966Z,21.5
2017-04-21T08:15:31.047Z,21.5
2017-04-21T08:16:39.134Z,21.6
2017-04-21T08:17:47.222Z,21.5
2017-04-21T08:18:55.380Z,21.5
2017-04-21T08:20:03.391Z,21.5
2017-04-21T08:21:11.484Z,21.5
2017-04-21T08:22:19.569Z,21.5
2017-04-21T08:23:27.662Z,21.5
2017-04-21T08:24:35.744Z,21.5
2017-04-21T08:25:43.833Z,21.6
2017-04-21T08:26:51.918Z,21.5
2017-04-21T08:28:00.001Z,21.5
2017-04-21T08:29:08.091Z,21.6
2017-04-21T08:30:16.178Z,21.6
2017-04-21T08:31:24.262Z,21.5
2017-04-21T08:32:32.346Z,21.6
2017-04-21T08:33:40.434Z,21.5
2017-04-21T08:34:48.520Z,21.6
2017-04-21T08:35:56.607Z,21.6
2017-04-21T08:37:04.697Z,21.6
2017-04-21T08:38:12.781Z,21.6
2017-04-21T08:39:20.867Z,21.5
2017-04-21T08:40:28.958Z,21.6
2017-04-21T08:41:37.047Z,21.5
2017-04-21T08:42:45.130Z,21.5
2017-04-21T08:43:53.223Z,21.6
2017-04-21T08:45:01.349Z,21.5
2017-04-21T08:46:09.388Z,21.5
2017-04-21T08:47:17.475Z,21.6
2017-04-21T08:48:25.557Z,21.5
2017-04-21T08:49:33.646Z,21.5
2017-04-21T08:51:49.814Z,21.5
2017-04-21T08:52:57.907Z,21.5
2017-04-21T08:54:05.993Z,21.5
2017-04-21T08:55:14.165Z,21.5
2017-04-21T08:56:22.714Z,21.5
2017-04-21T08:57:30.689Z,21.5
2017-04-21T08:58:38.406Z,21.6
2017-04-21T08:59:46.469Z,21.5
2017-04-21T09:00:54.511Z,21.5
2017-04-21T09:02:02.597Z,21.5
2017-04-21T09:03:10.678Z,21.5
2017-04-21T09:04:18.767Z,21.5
2017-04-21T09:05:26.856Z,21.5
2017-04-21T09:06:34.950Z,21.5
2017-04-21T09:07:43.024Z,21.5
2017-04-21T09:08:51.112Z,21.5
2017-04-21T09:09:59.201Z,21.5
2017-04-21T09:11:07.284Z,21.6
2017-04-21T09:12:15.367Z,21.6
2017-04-21T09:13:23.456Z,21.5
2017-04-21T09:14:31.538Z,21.5
2017-04-21T09:15:39.625Z,21.5
2017-04-21T09:16:47.717Z,21.5
2017-04-21T09:17:55.805Z,21.5
2017-04-21T09:19:03.908Z,21.5
2017-04-21T09:20:11.977Z,21.5
2017-04-21T09:21:20.063Z,21.6
2017-04-21T09:22:28.155Z,21.6
2017-04-21T09:23:36.237Z,21.5
2017-04-21T09:24:44.328Z,21.5
2017-04-21T09:25:52.421Z,21.5
2017-04-21T09:27:00.496Z,21.5
2017-04-21T09:28:08.586Z,21.5
2017-04-21T09:29:16.671Z,21.5
2017-04-21T09:30:24.756Z,21.5
2017-04-21T09:34:57.091Z,21.5
2017-04-21T09:36:05.184Z,21.5
2017-04-21T09:37:13.271Z,21.5
2017-04-21T09:38:21.354Z,21.5
2017-04-21T09:39:29.440Z,21.5
2017-04-21T09:40:37.529Z,21.5
2017-04-21T09:41:45.614Z,21.6
2017-04-21T09:43:12.225Z,21.5
2017-04-21T09:44:14.120Z,21.5
2017-04-21T09:45:09.872Z,21.5
2017-04-21T09:46:17.954Z,21.5
2017-04-21T09:47:26.039Z,21.6
2017-04-21T09:48:34.130Z,21.5
2017-04-21T09:49:42.214Z,21.5
2017-04-21T09:50:50.297Z,21.5
2017-04-21T10:08:59.672Z,21.5
2017-04-21T10:10:07.758Z,21.5
2017-04-21T10:11:15.839Z,21.5
2017-04-21T10:12:23.929Z,21.5
2017-04-21T10:13:32.011Z,21.5
2017-04-21T10:14:40.098Z,21.5
2017-04-21T10:15:48.190Z,21.5
2017-04-21T10:16:56.279Z,21.5
2017-04-21T10:18:04.418Z,21.5
2017-04-21T10:19:12.443Z,21.6
2017-04-21T10:20:20.531Z,21.6
2017-04-21T10:21:28.622Z,21.6
2017-04-21T10:22:36.706Z,21.5
2017-04-21T10:23:44.794Z,21.5
2017-04-21T10:24:52.879Z,21.6
2017-04-21T10:26:00.962Z,21.6
2017-04-21T10:27:09.074Z,21.5
2017-04-21T10:28:17.139Z,21.5
2017-04-21T10:29:25.228Z,21.5
2017-04-21T10:30:33.306Z,21.5
2017-04-21T10:31:41.399Z,21.5
2017-04-21T10:32:49.487Z,21.6
2017-04-21T10:33:57.574Z,21.5
2017-04-21T10:35:05.658Z,21.5
2017-04-21T10:36:13.749Z,21.5
2017-04-21T10:37:21.836Z,21.6
2017-04-21T10:38:29.924Z,21.5
2017-04-21T10:39:38.018Z,21.5
2017-04-21T10:40:46.110Z,21.5
2017-04-21T10:41:54.194Z,21.6
2017-04-21T10:43:02.289Z,21.6
2017-04-21T10:44:10.377Z,21.6
2017-04-21T10:45:18.462Z,21.6
2017-04-21T10:46:26.545Z,21.5
2017-04-21T10:47:34.722Z,21.5
2017-04-21T10:48:42.720Z,21.5
2017-04-21T10:49:50.801Z,21.6
2017-04-21T10:50:58.892Z,21.6
2017-04-21T10:52:06.976Z,21.5
2017-04-21T10:53:15.126Z,21.5
2017-04-21T10:54:23.145Z,21.5
2017-04-21T10:55:31.234Z,21.5
2017-04-21T10:56:39.321Z,21.5
2017-04-21T10:57:47.407Z,21.6
2017-04-21T10:58:55.491Z,21.5
2017-04-21T11:00:03.578Z,21.5
2017-04-21T11:01:11.659Z,21.5
2017-04-21T11:02:19.753Z,21.5
2017-04-21T11:03:27.837Z,21.5
2017-04-21T11:04:35.970Z,21.6
2017-04-21T11:05:44.006Z,21.6
2017-04-21T11:06:52.096Z,21.5
2017-04-21T11:08:00.206Z,21.5
2017-04-21T11:09:08.276Z,21.5
2017-04-21T11:10:16.349Z,21.5
2017-04-21T11:11:24.432Z,21.6
2017-04-21T11:12:32.526Z,21.5
2017-04-21T11:13:40.801Z,21.5
2017-04-21T11:14:48.696Z,21.6
2017-04-21T11:15:56.785Z,21.5
2017-04-21T11:17:04.870Z,21.5
2017-04-21T11:18:12.965Z,21.5
2017-04-21T11:19:21.055Z,21.5
2017-04-21T11:20:29.138Z,21.5
2017-04-21T11:21:37.228Z,21.5
2017-04-21T11:22:45.306Z,21.5
2017-04-21T11:23:53.398Z,21.6
2017-04-21T11:25:01.479Z,21.5
2017-04-21T11:26:09.563Z,21.5
2017-04-21T11:27:17.658Z,21.5
2017-04-21T11:28:26.406Z,21.5
2017-04-21T11:29:33.828Z,21.5
2017-04-21T11:30:41.918Z,21.5
2017-04-21T11:31:50.020Z,21.5
2017-04-21T11:32:58.108Z,21.4
2017-04-21T11:34:06.180Z,21.5
2017-04-21T11:35:14.274Z,21.5
2017-04-21T11:36:22.361Z,21.5
2017-04-21T11:37:30.442Z,21.5
2017-04-21T11:38:38.533Z,21.5
2017-04-21T11:39:46.617Z,21.5
2017-04-21T11:40:54.699Z,21.4
2017-04-21T11:42:02.787Z,21.5
2017-04-21T11:43:10.874Z,21.5
2017-04-21T11:44:18.959Z,21.4
2017-04-21T11:45:27.042Z,21.4
2017-04-21T11:46:35.134Z,21.4
2017-04-21T11:47:43.218Z,21.5
2017-04-21T11:48:51.306Z,21.4
2017-04-21T11:49:59.391Z,21.5
2017-04-21T11:51:07.492Z,21.5
2017-04-21T11:52:15.558Z,21.4
2017-04-21T11:53:23.645Z,21.4
2017-04-21T11:54:31.733Z,21.4
2017-04-21T11:55:39.818Z,21.4
2017-04-21T11:56:47.903Z,21.4
2017-04-21T11:57:55.988Z,21.4
2017-04-21T11:59:04.078Z,21.4
2017-04-21T12:00:12.161Z,21.4
2017-04-21T12:01:20.257Z,21.4
2017-04-21T12:02:28.337Z,21.4
2017-04-21T12:03:36.420Z,21.3
2017-04-21T12:04:44.504Z,21.4
2017-04-21T12:05:52.591Z,21.4
2017-04-21T12:07:00.676Z,21.4
2017-04-21T12:08:08.766Z,21.4
2017-04-21T12:09:16.848Z,21.4
2017-04-21T12:10:24.938Z,21.4
2017-04-21T12:11:33.023Z,21.4
2017-04-21T12:12:41.108Z,21.4
2017-04-21T12:13:49.465Z,21.4
2017-04-21T12:14:57.283Z,21.4
2017-04-21T12:16:05.368Z,21.4
2017-04-21T12:17:13.447Z,21.4
2017-04-21T12:18:21.537Z,21.4
2017-04-21T12:19:29.630Z,21.4
2017-04-21T12:20:37.705Z,21.4
2017-04-21T12:21:45.793Z,21.4
2017-04-21T12:22:53.880Z,21.3
2017-04-21T12:24:01.962Z,21.3
2017-04-21T12:25:10.046Z,21.4
2017-04-21T12:26:18.141Z,21.3
2017-04-21T12:27:26.224Z,21.4
2017-04-21T12:28:34.308Z,21.4
2017-04-21T12:29:42.398Z,21.3
2017-04-21T12:30:50.488Z,21.3
2017-04-21T12:31:58.572Z,21.3
2017-04-21T12:33:06.657Z,21.4
2017-04-21T12:34:14.749Z,21.4
2017-04-21T12:35:22.835Z,21.3
2017-04-21T12:36:30.917Z,21.3
2017-04-21T12:37:39.005Z,21.3
2017-04-21T12:38:47.090Z,21.3
2017-04-21T12:39:55.171Z,21.4
2017-04-21T12:41:03.268Z,21.3
2017-04-21T12:42:11.356Z,21.3
2017-04-21T12:43:19.437Z,21.3
2017-04-21T12:44:27.523Z,21.3
2017-04-21T12:45:35.610Z,21.4
2017-04-21T12:46:43.705Z,21.3
2017-04-21T12:47:51.783Z,21.3
2017-04-21T12:48:59.873Z,21.3
2017-04-21T12:50:07.957Z,21.3
2017-04-21T12:51:16.040Z,21.3
2017-04-21T12:52:24.131Z,21.2
2017-04-21T12:53:32.222Z,21.2
2017-04-21T12:54:40.308Z,21.1
2017-04-21T12:55:48.393Z,21.1
2017-04-21T12:56:56.478Z,21.2
2017-04-21T12:58:04.564Z,21.2
2017-04-21T12:59:12.647Z,21.2
2017-04-21T13:00:20.727Z,21.0
2017-04-21T13:01:28.819Z,21.0
2017-04-21T13:02:36.900Z,21.1
2017-04-21T13:03:44.986Z,21.0
2017-04-21T13:04:53.082Z,21.1
2017-04-21T13:06:01.164Z,21.0
2017-04-21T13:07:09.249Z,21.0
2017-04-21T13:08:17.332Z,21.0
2017-04-21T13:09:25.417Z,21.0
2017-04-21T13:10:33.509Z,21.1
2017-04-21T13:11:41.858Z,20.9
2017-04-21T13:12:49.964Z,20.9
2017-04-21T13:13:58.198Z,21.0
2017-04-21T13:15:06.222Z,20.9
2017-04-21T13:16:14.398Z,20.9
2017-04-21T13:17:22.179Z,20.9
2017-04-21T13:18:30.541Z,20.9
2017-04-21T13:19:38.379Z,20.9
2017-04-21T13:20:46.383Z,20.9
2017-04-21T13:21:54.651Z,20.9
2017-04-21T13:23:03.185Z,20.9
2017-04-21T13:24:10.791Z,20.9
2017-04-21T13:25:19.238Z,20.9
2017-04-21T13:26:26.890Z,20.9
2017-04-21T13:27:34.780Z,20.9
2017-04-21T13:28:42.875Z,20.9
2017-04-21T13:29:50.965Z,20.9
2017-04-21T13:30:59.047Z,20.8
2017-04-21T13:32:07.128Z,20.8
2017-04-21T13:33:15.225Z,20.9
2017-04-21T13:34:23.307Z,20.8
2017-04-21T13:35:31.385Z,20.9
2017-04-21T13:36:39.482Z,20.8
2017-04-21T13:37:47.566Z,20.9
2017-04-21T13:38:55.648Z,20.7
2017-04-21T13:40:03.737Z,20.7
2017-04-21T13:41:11.822Z,20.8
2017-04-21T13:42:19.905Z,20.7
2017-04-21T13:43:27.985Z,20.7
2017-04-21T13:44:36.074Z,20.7
2017-04-21T13:45:44.165Z,20.6
2017-04-21T13:46:52.248Z,20.7
2017-04-21T13:48:00.333Z,20.6
2017-04-21T13:49:08.425Z,20.7
2017-04-21T13:50:16.505Z,20.7
2017-04-21T13:51:24.588Z,20.7
2017-04-21T13:52:32.674Z,20.7
2017-04-21T13:53:40.759Z,20.7
2017-04-21T13:54:48.840Z,20.6
2017-04-21T13:55:56.929Z,20.7
2017-04-21T13:57:05.016Z,20.6
2017-04-21T13:58:13.099Z,20.6
2017-04-21T13:59:21.179Z,20.7
2017-04-21T14:00:29.270Z,20.6
2017-04-21T14:01:37.354Z,20.6
2017-04-21T14:02:45.442Z,20.6
2017-04-21T14:03:53.530Z,20.7
2017-04-21T14:05:01.615Z,20.6
2017-04-21T14:06:09.699Z,20.6
2017-04-21T14:07:17.877Z,20.5
2017-04-21T14:08:25.869Z,20.5
2017-04-21T14:09:33.952Z,20.5
2017-04-21T14:10:42.034Z,20.6
2017-04-21T14:11:50.123Z,20.6
2017-04-21T14:12:58.210Z,20.5
2017-04-21T14:14:06.291Z,20.6
2017-04-21T14:15:14.376Z,20.5
2017-04-21T14:16:22.462Z,20.5
2017-04-21T14:17:30.548Z,20.4
2017-04-21T14:18:38.628Z,20.5
2017-04-21T14:19:46.717Z,20.4
2017-04-21T14:20:54.802Z,20.5
2017-04-21T14:22:02.888Z,20.5
2017-04-21T14:23:10.967Z,20.5
2017-04-21T14:24:19.105Z,20.4
2017-04-21T14:25:27.140Z,20.5
2017-04-21T14:26:35.223Z,20.5
2017-04-21T14:27:43.311Z,20.3
2017-04-21T14:28:51.396Z,20.3
2017-04-21T14:29:59.476Z,20.3
2017-04-21T14:31:07.561Z,20.3
2017-04-21T14:32:15.649Z,20.4
2017-04-21T14:33:23.735Z,20.4
2017-04-21T14:34:31.816Z,20.3
2017-04-21T14:35:39.904Z,20.4
2017-04-21T14:36:47.988Z,20.4
2017-04-21T14:37:56.068Z,20.3
2017-04-21T14:39:04.155Z,20.3
2017-04-21T14:40:12.250Z,20.4
2017-04-21T14:41:20.338Z,20.3
2017-04-21T14:42:28.421Z,20.3
2017-04-21T14:43:36.512Z,20.3
2017-04-21T14:44:44.602Z,20.2
2017-04-21T14:45:52.683Z,20.3
2017-04-21T14:47:00.771Z,20.3
2017-04-21T14:48:08.854Z,20.3
2017-04-21T14:49:16.938Z,20.3
2017-04-21T14:50:25.034Z,20.3
2017-04-21T14:51:33.119Z,20.3
2017-04-21T14:52:41.200Z,20.2
2017-04-21T14:53:49.288Z,20.2
2017-04-21T14:54:57.372Z,20.3
2017-04-21T14:56:05.460Z,20.2
2017-04-21T14:57:13.547Z,20.2
2017-04-21T14:58:21.626Z,20.1
2017-04-21T14:59:29.717Z,20.2
2017-04-21T15:00:37.806Z,20.2
2017-04-21T15:01:45.886Z,20.2
2017-04-21T15:02:53.973Z,20.2
2017-04-21T15:04:02.059Z,20.2
2017-04-21T15:05:10.147Z,20.2
2017-04-21T15:06:18.228Z,20.2
2017-04-21T15:07:26.316Z,20.2
2017-04-21T15:08:34.402Z,20.2
2017-04-21T15:09:42.482Z,20.2
2017-04-21T15:10:50.569Z,20.1
2017-04-21T15:11:58.654Z,20.1
2017-04-21T15:13:06.744Z,20.2
2017-04-21T15:14:14.830Z,20.1
2017-04-21T15:15:22.917Z,20.2
2017-04-21T15:16:31.001Z,20.1
2017-04-21T15:17:39.082Z,20.1
2017-04-21T15:18:47.171Z,20.1
2017-04-21T15:19:55.256Z,20.1
2017-04-21T15:21:03.340Z,20.2
2017-04-21T15:22:11.420Z,20.1
2017-04-21T15:23:19.508Z,20.1
2017-04-21T15:24:27.716Z,20.1
2017-04-21T15:25:35.685Z,20.1
2017-04-21T15:26:43.772Z,20.0
2017-04-21T15:27:51.858Z,20.1
2017-04-21T15:28:59.936Z,20.1